Ceres, Washington
Current Conditions -  °F | °C
As of 10:55 PM on Thursday 27 Nov 2014 (Local Time) from KCLS Reporting Station
Drizzle Drizzle  
Wind Chill: 54°   Ceiling: NA
Heat Index: 54°   Visibility: 7mi
Dew Point: 52°   Wind: 14mph
Humidity: 94%   Direction: 170°S
Pressure: 29.76"   Gusts: 23mph
Location:  46.6561°N, 122.993°W
Report Text: KCLS 280655Z AUTO 17012G20KT 7SM -DZ 12/11 A2976 RMK AO2
Loading
Personal Weather Stations






























Interactive Weather Map New forecast layout! Learn more

10-Day Weather Forecast

Advertisements
Track Severe Weather on mobile